sensor_id;sensor_type;location;lat;lon;timestamp;P1;durP1;ratioP1;P2;durP2;ratioP2
8088;SDS011;57635;49.194;12.104;2023-09-12T00:01:24;15.77;;;14.57;;
8088;SDS011;57635;49.194;12.104;2023-09-12T00:03:52;15.47;;;14.37;;
8088;SDS011;57635;49.194;12.104;2023-09-12T00:06:20;16.33;;;15.03;;
8088;SDS011;57635;49.194;12.104;2023-09-12T00:08:49;15.80;;;14.60;;
8088;SDS011;57635;49.194;12.104;2023-09-12T00:11:16;16.40;;;15.10;;
8088;SDS011;57635;49.194;12.104;2023-09-12T00:13:44;16.93;;;15.53;;
8088;SDS011;57635;49.194;12.104;2023-09-12T00:16:12;15.87;;;14.67;;
8088;SDS011;57635;49.194;12.104;2023-09-12T00:18:40;14.70;;;13.60;;
8088;SDS011;57635;49.194;12.104;2023-09-12T00:21:09;13.80;;;12.80;;
8088;SDS011;57635;49.194;12.104;2023-09-12T00:23:36;15.63;;;14.53;;
8088;SDS011;57635;49.194;12.104;2023-09-12T00:26:05;16.00;;;14.80;;
8088;SDS011;57635;49.194;12.104;2023-09-12T00:28:33;15.20;;;14.03;;
8088;SDS011;57635;49.194;12.104;2023-09-12T00:31:01;15.03;;;13.93;;
8088;SDS011;57635;49.194;12.104;2023-09-12T00:33:28;16.00;;;14.60;;
8088;SDS011;57635;49.194;12.104;2023-09-12T00:35:56;15.73;;;14.53;;
8088;SDS011;57635;49.194;12.104;2023-09-12T00:38:24;15.43;;;14.23;;
8088;SDS011;57635;49.194;12.104;2023-09-12T00:40:51;15.77;;;14.47;;
8088;SDS011;57635;49.194;12.104;2023-09-12T00:43:20;17.17;;;15.83;;
8088;SDS011;57635;49.194;12.104;2023-09-12T00:45:48;17.87;;;16.57;;
8088;SDS011;57635;49.194;12.104;2023-09-12T00:48:16;16.57;;;15.07;;
8088;SDS011;57635;49.194;12.104;2023-09-12T00:50:44;17.10;;;15.80;;
8088;SDS011;57635;49.194;12.104;2023-09-12T00:53:13;16.90;;;15.70;;
8088;SDS011;57635;49.194;12.104;2023-09-12T00:55:42;16.63;;;15.23;;
8088;SDS011;57635;49.194;12.104;2023-09-12T00:58:13;16.27;;;15.07;;
8088;SDS011;57635;49.194;12.104;2023-09-12T01:00:42;16.33;;;15.13;;
8088;SDS011;57635;49.194;12.104;2023-09-12T01:03:10;17.07;;;15.77;;
8088;SDS011;57635;49.194;12.104;2023-09-12T01:05:37;17.33;;;15.93;;
8088;SDS011;57635;49.194;12.104;2023-09-12T01:08:05;17.30;;;15.73;;
8088;SDS011;57635;49.194;12.104;2023-09-12T01:10:33;16.83;;;15.47;;
8088;SDS011;57635;49.194;12.104;2023-09-12T01:13:01;17.80;;;16.40;;
8088;SDS011;57635;49.194;12.104;2023-09-12T01:15:28;16.57;;;15.37;;
8088;SDS011;57635;49.194;12.104;2023-09-12T01:17:57;17.03;;;15.63;;
8088;SDS011;57635;49.194;12.104;2023-09-12T01:20:27;18.43;;;16.77;;
8088;SDS011;57635;49.194;12.104;2023-09-12T01:22:58;16.97;;;15.57;;
8088;SDS011;57635;49.194;12.104;2023-09-12T01:28:20;16.20;;;15.00;;
8088;SDS011;57635;49.194;12.104;2023-09-12T01:30:51;17.10;;;15.83;;
8088;SDS011;57635;49.194;12.104;2023-09-12T01:33:19;18.17;;;16.60;;
8088;SDS011;57635;49.194;12.104;2023-09-12T01:35:47;16.70;;;15.50;;
8088;SDS011;57635;49.194;12.104;2023-09-12T01:38:15;17.17;;;15.77;;
8088;SDS011;57635;49.194;12.104;2023-09-12T01:40:43;16.70;;;15.40;;
8088;SDS011;57635;49.194;12.104;2023-09-12T01:43:14;16.17;;;14.87;;
8088;SDS011;57635;49.194;12.104;2023-09-12T01:45:45;18.47;;;17.00;;
8088;SDS011;57635;49.194;12.104;2023-09-12T01:48:13;17.00;;;15.70;;
8088;SDS011;57635;49.194;12.104;2023-09-12T01:50:47;18.27;;;16.60;;
8088;SDS011;57635;49.194;12.104;2023-09-12T01:53:14;18.10;;;16.67;;
8088;SDS011;57635;49.194;12.104;2023-09-12T01:55:43;17.43;;;16.13;;
8088;SDS011;57635;49.194;12.104;2023-09-12T01:58:10;17.40;;;16.10;;
8088;SDS011;57635;49.194;12.104;2023-09-12T02:00:38;16.20;;;15.00;;
8088;SDS011;57635;49.194;12.104;2023-09-12T02:03:08;16.27;;;14.97;;
8088;SDS011;57635;49.194;12.104;2023-09-12T02:05:36;17.03;;;15.73;;
8088;SDS011;57635;49.194;12.104;2023-09-12T02:08:04;17.43;;;15.73;;
8088;SDS011;57635;49.194;12.104;2023-09-12T02:10:32;16.80;;;15.60;;
8088;SDS011;57635;49.194;12.104;2023-09-12T02:12:59;16.33;;;15.03;;
8088;SDS011;57635;49.194;12.104;2023-09-12T02:15:27;17.77;;;16.07;;
8088;SDS011;57635;49.194;12.104;2023-09-12T02:17:54;17.13;;;15.73;;
8088;SDS011;57635;49.194;12.104;2023-09-12T02:20:23;17.40;;;16.03;;
8088;SDS011;57635;49.194;12.104;2023-09-12T02:22:52;15.40;;;14.30;;
8088;SDS011;57635;49.194;12.104;2023-09-12T02:25:19;16.13;;;14.87;;
8088;SDS011;57635;49.194;12.104;2023-09-12T02:27:47;16.77;;;15.30;;
8088;SDS011;57635;49.194;12.104;2023-09-12T02:30:15;17.03;;;15.43;;
8088;SDS011;57635;49.194;12.104;2023-09-12T02:32:43;17.60;;;16.30;;
8088;SDS011;57635;49.194;12.104;2023-09-12T02:35:10;16.97;;;15.67;;
8088;SDS011;57635;49.194;12.104;2023-09-12T02:37:39;16.83;;;15.43;;
8088;SDS011;57635;49.194;12.104;2023-09-12T02:40:07;16.37;;;15.17;;
8088;SDS011;57635;49.194;12.104;2023-09-12T02:42:37;15.97;;;14.87;;
8088;SDS011;57635;49.194;12.104;2023-09-12T02:45:05;16.93;;;15.67;;
8088;SDS011;57635;49.194;12.104;2023-09-12T02:47:34;17.37;;;16.07;;
8088;SDS011;57635;49.194;12.104;2023-09-12T02:50:01;18.40;;;16.90;;
8088;SDS011;57635;49.194;12.104;2023-09-12T02:52:29;19.17;;;17.40;;
8088;SDS011;57635;49.194;12.104;2023-09-12T02:54:58;18.13;;;16.73;;
8088;SDS011;57635;49.194;12.104;2023-09-12T02:57:25;17.20;;;15.90;;
8088;SDS011;57635;49.194;12.104;2023-09-12T02:59:53;16.83;;;15.53;;
8088;SDS011;57635;49.194;12.104;2023-09-12T03:02:21;17.70;;;16.20;;
8088;SDS011;57635;49.194;12.104;2023-09-12T03:04:48;16.97;;;15.63;;
8088;SDS011;57635;49.194;12.104;2023-09-12T03:07:17;16.53;;;15.33;;
8088;SDS011;57635;49.194;12.104;2023-09-12T03:09:44;15.37;;;14.23;;
8088;SDS011;57635;49.194;12.104;2023-09-12T03:12:16;16.77;;;15.47;;
8088;SDS011;57635;49.194;12.104;2023-09-12T03:14:44;16.87;;;15.57;;
8088;SDS011;57635;49.194;12.104;2023-09-12T03:17:12;17.90;;;16.43;;
8088;SDS011;57635;49.194;12.104;2023-09-12T03:19:39;17.23;;;15.83;;
8088;SDS011;57635;49.194;12.104;2023-09-12T03:22:07;17.63;;;15.93;;
8088;SDS011;57635;49.194;12.104;2023-09-12T03:24:36;17.80;;;16.27;;
8088;SDS011;57635;49.194;12.104;2023-09-12T03:27:03;18.60;;;16.83;;
8088;SDS011;57635;49.194;12.104;2023-09-12T03:29:32;17.77;;;16.37;;
8088;SDS011;57635;49.194;12.104;2023-09-12T03:32:00;16.70;;;15.20;;
8088;SDS011;57635;49.194;12.104;2023-09-12T03:34:28;16.20;;;14.97;;
8088;SDS011;57635;49.194;12.104;2023-09-12T03:36:56;18.13;;;16.60;;
8088;SDS011;57635;49.194;12.104;2023-09-12T03:39:23;17.90;;;16.40;;
8088;SDS011;57635;49.194;12.104;2023-09-12T03:41:51;17.33;;;15.93;;
8088;SDS011;57635;49.194;12.104;2023-09-12T03:44:19;16.80;;;15.50;;
8088;SDS011;57635;49.194;12.104;2023-09-12T03:46:48;17.40;;;16.00;;
8088;SDS011;57635;49.194;12.104;2023-09-12T03:49:15;16.53;;;15.20;;
8088;SDS011;57635;49.194;12.104;2023-09-12T03:51:43;16.70;;;15.37;;
8088;SDS011;57635;49.194;12.104;2023-09-12T03:54:11;15.63;;;14.47;;
8088;SDS011;57635;49.194;12.104;2023-09-12T03:56:39;17.03;;;15.73;;
8088;SDS011;57635;49.194;12.104;2023-09-12T03:59:10;15.60;;;14.40;;
8088;SDS011;57635;49.194;12.104;2023-09-12T04:01:38;16.33;;;15.03;;
8088;SDS011;57635;49.194;12.104;2023-09-12T04:04:07;16.13;;;14.63;;
8088;SDS011;57635;49.194;12.104;2023-09-12T04:06:35;17.30;;;15.97;;
8088;SDS011;57635;49.194;12.104;2023-09-12T04:09:03;16.73;;;15.50;;
8088;SDS011;57635;49.194;12.104;2023-09-12T04:11:31;17.63;;;16.23;;
8088;SDS011;57635;49.194;12.104;2023-09-12T04:14:12;16.90;;;15.50;;
8088;SDS011;57635;49.194;12.104;2023-09-12T04:16:41;16.93;;;15.63;;
8088;SDS011;57635;49.194;12.104;2023-09-12T04:19:10;17.20;;;15.93;;
8088;SDS011;57635;49.194;12.104;2023-09-12T04:21:37;17.00;;;15.60;;
8088;SDS011;57635;49.194;12.104;2023-09-12T04:24:05;16.90;;;15.60;;
8088;SDS011;57635;49.194;12.104;2023-09-12T04:26:34;17.37;;;15.77;;
8088;SDS011;57635;49.194;12.104;2023-09-12T04:29:01;16.30;;;15.10;;
8088;SDS011;57635;49.194;12.104;2023-09-12T04:31:29;17.37;;;15.90;;
8088;SDS011;57635;49.194;12.104;2023-09-12T04:33:56;16.17;;;14.87;;
8088;SDS011;57635;49.194;12.104;2023-09-12T04:36:25;17.50;;;16.10;;
8088;SDS011;57635;49.194;12.104;2023-09-12T04:38:53;17.23;;;15.60;;
8088;SDS011;57635;49.194;12.104;2023-09-12T04:41:21;16.87;;;15.53;;
8088;SDS011;57635;49.194;12.104;2023-09-12T04:43:48;15.73;;;14.63;;
8088;SDS011;57635;49.194;12.104;2023-09-12T04:46:16;17.77;;;16.40;;
8088;SDS011;57635;49.194;12.104;2023-09-12T04:48:44;17.50;;;16.20;;
8088;SDS011;57635;49.194;12.104;2023-09-12T04:51:12;15.90;;;14.30;;
8088;SDS011;57635;49.194;12.104;2023-09-12T04:53:41;15.60;;;14.40;;
8088;SDS011;57635;49.194;12.104;2023-09-12T04:56:09;17.03;;;15.50;;
8088;SDS011;57635;49.194;12.104;2023-09-12T04:58:37;17.23;;;15.90;;
8088;SDS011;57635;49.194;12.104;2023-09-12T05:01:04;16.10;;;14.90;;
8088;SDS011;57635;49.194;12.104;2023-09-12T05:03:32;16.67;;;15.37;;
8088;SDS011;57635;49.194;12.104;2023-09-12T05:06:00;17.20;;;15.77;;
8088;SDS011;57635;49.194;12.104;2023-09-12T05:08:28;16.73;;;15.23;;
8088;SDS011;57635;49.194;12.104;2023-09-12T05:10:57;17.07;;;15.67;;
8088;SDS011;57635;49.194;12.104;2023-09-12T05:13:25;17.10;;;15.80;;
8088;SDS011;57635;49.194;12.104;2023-09-12T05:15:52;17.33;;;16.03;;
8088;SDS011;57635;49.194;12.104;2023-09-12T05:18:20;16.97;;;15.37;;
8088;SDS011;57635;49.194;12.104;2023-09-12T05:20:48;17.47;;;15.73;;
8088;SDS011;57635;49.194;12.104;2023-09-12T05:23:16;17.93;;;15.93;;
8088;SDS011;57635;49.194;12.104;2023-09-12T05:25:44;17.70;;;16.10;;
8088;SDS011;57635;49.194;12.104;2023-09-12T05:28:13;16.73;;;15.13;;
8088;SDS011;57635;49.194;12.104;2023-09-12T05:30:42;16.90;;;15.27;;
8088;SDS011;57635;49.194;12.104;2023-09-12T05:33:10;19.83;;;17.90;;
8088;SDS011;57635;49.194;12.104;2023-09-12T05:35:38;22.70;;;17.03;;
8088;SDS011;57635;49.194;12.104;2023-09-12T05:38:06;20.13;;;16.77;;
8088;SDS011;57635;49.194;12.104;2023-09-12T05:40:34;16.93;;;15.40;;
8088;SDS011;57635;49.194;12.104;2023-09-12T05:43:02;16.43;;;14.97;;
8088;SDS011;57635;49.194;12.104;2023-09-12T05:45:31;21.47;;;16.10;;
8088;SDS011;57635;49.194;12.104;2023-09-12T05:47:59;17.23;;;15.40;;
8088;SDS011;57635;49.194;12.104;2023-09-12T05:50:28;17.10;;;15.67;;
8088;SDS011;57635;49.194;12.104;2023-09-12T05:52:56;20.77;;;16.23;;
8088;SDS011;57635;49.194;12.104;2023-09-12T05:55:24;26.27;;;16.83;;
8088;SDS011;57635;49.194;12.104;2023-09-12T05:57:52;19.43;;;16.87;;
8088;SDS011;57635;49.194;12.104;2023-09-12T06:00:19;18.97;;;17.23;;
8088;SDS011;57635;49.194;12.104;2023-09-12T06:02:48;18.07;;;16.50;;
8088;SDS011;57635;49.194;12.104;2023-09-12T06:05:16;17.77;;;16.13;;
8088;SDS011;57635;49.194;12.104;2023-09-12T06:07:44;18.60;;;16.93;;
8088;SDS011;57635;49.194;12.104;2023-09-12T06:10:13;17.57;;;15.90;;
8088;SDS011;57635;49.194;12.104;2023-09-12T06:12:41;17.53;;;16.10;;
8088;SDS011;57635;49.194;12.104;2023-09-12T06:15:09;17.00;;;15.40;;
8088;SDS011;57635;49.194;12.104;2023-09-12T06:17:37;18.63;;;17.13;;
8088;SDS011;57635;49.194;12.104;2023-09-12T06:20:06;19.60;;;17.77;;
8088;SDS011;57635;49.194;12.104;2023-09-12T06:22:35;21.37;;;19.53;;
8088;SDS011;57635;49.194;12.104;2023-09-12T06:25:03;19.00;;;17.33;;
8088;SDS011;57635;49.194;12.104;2023-09-12T06:27:32;19.37;;;17.73;;
8088;SDS011;57635;49.194;12.104;2023-09-12T06:30:00;19.83;;;18.20;;
8088;SDS011;57635;49.194;12.104;2023-09-12T06:32:27;20.17;;;18.40;;
8088;SDS011;57635;49.194;12.104;2023-09-12T06:34:55;18.33;;;16.93;;
8088;SDS011;57635;49.194;12.104;2023-09-12T06:37:24;20.40;;;18.53;;
8088;SDS011;57635;49.194;12.104;2023-09-12T06:39:51;19.30;;;17.80;;
8088;SDS011;57635;49.194;12.104;2023-09-12T06:42:19;18.87;;;17.27;;
8088;SDS011;57635;49.194;12.104;2023-09-12T06:44:47;21.17;;;19.03;;
8088;SDS011;57635;49.194;12.104;2023-09-12T06:47:14;19.77;;;18.17;;
8088;SDS011;57635;49.194;12.104;2023-09-12T06:49:42;18.53;;;16.97;;
8088;SDS011;57635;49.194;12.104;2023-09-12T06:52:15;17.47;;;16.03;;
8088;SDS011;57635;49.194;12.104;2023-09-12T06:54:44;17.37;;;16.00;;
8088;SDS011;57635;49.194;12.104;2023-09-12T06:57:11;17.13;;;15.53;;
8088;SDS011;57635;49.194;12.104;2023-09-12T06:59:40;18.20;;;16.47;;
8088;SDS011;57635;49.194;12.104;2023-09-12T07:02:08;16.90;;;15.37;;
8088;SDS011;57635;49.194;12.104;2023-09-12T07:04:36;15.87;;;14.57;;
8088;SDS011;57635;49.194;12.104;2023-09-12T07:07:04;16.40;;;14.97;;
8088;SDS011;57635;49.194;12.104;2023-09-12T07:09:32;17.67;;;15.90;;
8088;SDS011;57635;49.194;12.104;2023-09-12T07:12:01;16.80;;;15.17;;
8088;SDS011;57635;49.194;12.104;2023-09-12T07:14:32;16.37;;;15.07;;
8088;SDS011;57635;49.194;12.104;2023-09-12T07:16:59;17.20;;;15.53;;
8088;SDS011;57635;49.194;12.104;2023-09-12T07:19:27;17.73;;;16.07;;
8088;SDS011;57635;49.194;12.104;2023-09-12T07:21:55;16.77;;;15.37;;
8088;SDS011;57635;49.194;12.104;2023-09-12T07:24:24;16.33;;;14.93;;
8088;SDS011;57635;49.194;12.104;2023-09-12T07:26:52;15.83;;;14.43;;
8088;SDS011;57635;49.194;12.104;2023-09-12T07:29:21;16.60;;;15.10;;
8088;SDS011;57635;49.194;12.104;2023-09-12T07:31:51;15.83;;;14.43;;
8088;SDS011;57635;49.194;12.104;2023-09-12T07:34:20;14.93;;;13.73;;
8088;SDS011;57635;49.194;12.104;2023-09-12T07:36:48;16.10;;;14.17;;
8088;SDS011;57635;49.194;12.104;2023-09-12T07:39:17;15.33;;;13.93;;
8088;SDS011;57635;49.194;12.104;2023-09-12T07:41:45;15.97;;;14.50;;
8088;SDS011;57635;49.194;12.104;2023-09-12T07:44:13;14.73;;;13.43;;
8088;SDS011;57635;49.194;12.104;2023-09-12T07:46:43;15.87;;;14.37;;
8088;SDS011;57635;49.194;12.104;2023-09-12T07:49:11;16.70;;;15.10;;
8088;SDS011;57635;49.194;12.104;2023-09-12T07:51:38;15.33;;;13.73;;
8088;SDS011;57635;49.194;12.104;2023-09-12T07:54:06;16.37;;;15.07;;
8088;SDS011;57635;49.194;12.104;2023-09-12T07:56:34;16.97;;;15.47;;
8088;SDS011;57635;49.194;12.104;2023-09-12T07:59:01;15.30;;;14.10;;
8088;SDS011;57635;49.194;12.104;2023-09-12T08:01:29;15.67;;;14.47;;
8088;SDS011;57635;49.194;12.104;2023-09-12T08:03:58;16.20;;;14.80;;
8088;SDS011;57635;49.194;12.104;2023-09-12T08:06:26;15.87;;;14.67;;
8088;SDS011;57635;49.194;12.104;2023-09-12T08:08:53;17.03;;;15.77;;
8088;SDS011;57635;49.194;12.104;2023-09-12T08:11:21;14.77;;;13.60;;
8088;SDS011;57635;49.194;12.104;2023-09-12T08:13:49;16.23;;;14.60;;
8088;SDS011;57635;49.194;12.104;2023-09-12T08:16:17;16.00;;;14.80;;
8088;SDS011;57635;49.194;12.104;2023-09-12T08:18:44;14.87;;;13.53;;
8088;SDS011;57635;49.194;12.104;2023-09-12T08:21:13;14.77;;;13.50;;
8088;SDS011;57635;49.194;12.104;2023-09-12T08:23:41;16.77;;;14.27;;
8088;SDS011;57635;49.194;12.104;2023-09-12T08:26:09;15.03;;;13.73;;
8088;SDS011;57635;49.194;12.104;2023-09-12T08:28:37;15.23;;;14.10;;
8088;SDS011;57635;49.194;12.104;2023-09-12T08:31:05;15.00;;;13.80;;
8088;SDS011;57635;49.194;12.104;2023-09-12T08:33:32;15.60;;;14.33;;
8088;SDS011;57635;49.194;12.104;2023-09-12T08:36:00;15.63;;;14.23;;
8088;SDS011;57635;49.194;12.104;2023-09-12T08:38:29;14.23;;;13.03;;
8088;SDS011;57635;49.194;12.104;2023-09-12T08:40:57;14.77;;;13.43;;
8088;SDS011;57635;49.194;12.104;2023-09-12T08:43:25;15.37;;;13.93;;
8088;SDS011;57635;49.194;12.104;2023-09-12T08:45:53;18.53;;;15.00;;
8088;SDS011;57635;49.194;12.104;2023-09-12T08:48:21;15.07;;;13.67;;
8088;SDS011;57635;49.194;12.104;2023-09-12T08:50:50;15.83;;;14.43;;
8088;SDS011;57635;49.194;12.104;2023-09-12T08:53:19;15.37;;;14.03;;
8088;SDS011;57635;49.194;12.104;2023-09-12T08:55:50;15.10;;;13.83;;
8088;SDS011;57635;49.194;12.104;2023-09-12T08:58:19;14.67;;;13.47;;
8088;SDS011;57635;49.194;12.104;2023-09-12T09:00:48;14.87;;;13.60;;
8088;SDS011;57635;49.194;12.104;2023-09-12T09:03:15;15.33;;;14.13;;
8088;SDS011;57635;49.194;12.104;2023-09-12T09:05:43;16.33;;;14.23;;
8088;SDS011;57635;49.194;12.104;2023-09-12T09:08:11;14.87;;;13.70;;
8088;SDS011;57635;49.194;12.104;2023-09-12T09:10:40;15.50;;;14.40;;
8088;SDS011;57635;49.194;12.104;2023-09-12T09:13:23;16.20;;;15.03;;
8088;SDS011;57635;49.194;12.104;2023-09-12T09:16:02;17.77;;;16.30;;
8088;SDS011;57635;49.194;12.104;2023-09-12T09:18:49;16.33;;;15.23;;
8088;SDS011;57635;49.194;12.104;2023-09-12T09:21:18;17.40;;;15.93;;
8088;SDS011;57635;49.194;12.104;2023-09-12T09:23:46;17.70;;;16.30;;
8088;SDS011;57635;49.194;12.104;2023-09-12T09:26:15;16.90;;;15.50;;
8088;SDS011;57635;49.194;12.104;2023-09-12T09:28:43;16.67;;;15.27;;
8088;SDS011;57635;49.194;12.104;2023-09-12T09:31:11;17.20;;;15.73;;
8088;SDS011;57635;49.194;12.104;2023-09-12T09:33:39;14.43;;;13.33;;
8088;SDS011;57635;49.194;12.104;2023-09-12T09:36:08;14.60;;;13.63;;
8088;SDS011;57635;49.194;12.104;2023-09-12T09:38:35;14.63;;;13.63;;
8088;SDS011;57635;49.194;12.104;2023-09-12T09:41:04;14.17;;;13.07;;
8088;SDS011;57635;49.194;12.104;2023-09-12T09:43:33;14.90;;;13.70;;
8088;SDS011;57635;49.194;12.104;2023-09-12T09:46:01;12.83;;;11.93;;
8088;SDS011;57635;49.194;12.104;2023-09-12T09:48:30;13.90;;;12.87;;
8088;SDS011;57635;49.194;12.104;2023-09-12T09:51:01;13.73;;;12.73;;
8088;SDS011;57635;49.194;12.104;2023-09-12T09:53:30;13.67;;;12.57;;
8088;SDS011;57635;49.194;12.104;2023-09-12T09:56:09;12.33;;;11.50;;
8088;SDS011;57635;49.194;12.104;2023-09-12T09:58:43;14.10;;;13.00;;
8088;SDS011;57635;49.194;12.104;2023-09-12T10:01:15;14.00;;;12.70;;
8088;SDS011;57635;49.194;12.104;2023-09-12T10:03:45;12.97;;;10.90;;
8088;SDS011;57635;49.194;12.104;2023-09-12T10:06:14;13.20;;;12.30;;
8088;SDS011;57635;49.194;12.104;2023-09-12T10:08:42;12.70;;;11.67;;
8088;SDS011;57635;49.194;12.104;2023-09-12T10:11:11;12.50;;;11.57;;
8088;SDS011;57635;49.194;12.104;2023-09-12T10:13:45;12.37;;;11.50;;
8088;SDS011;57635;49.194;12.104;2023-09-12T10:16:14;12.37;;;11.37;;
8088;SDS011;57635;49.194;12.104;2023-09-12T10:18:46;11.57;;;10.67;;
8088;SDS011;57635;49.194;12.104;2023-09-12T10:21:19;12.07;;;11.07;;
8088;SDS011;57635;49.194;12.104;2023-09-12T10:23:50;11.43;;;10.63;;
8088;SDS011;57635;49.194;12.104;2023-09-12T10:26:18;12.03;;;11.13;;
8088;SDS011;57635;49.194;12.104;2023-09-12T10:28:48;12.47;;;11.47;;
8088;SDS011;57635;49.194;12.104;2023-09-12T10:31:17;11.73;;;10.93;;
8088;SDS011;57635;49.194;12.104;2023-09-12T10:33:46;12.20;;;11.20;;
8088;SDS011;57635;49.194;12.104;2023-09-12T10:36:14;11.37;;;10.47;;
8088;SDS011;57635;49.194;12.104;2023-09-12T10:38:43;11.70;;;10.90;;
8088;SDS011;57635;49.194;12.104;2023-09-12T10:41:12;11.87;;;10.40;;
8088;SDS011;57635;49.194;12.104;2023-09-12T10:43:41;11.07;;;10.27;;
8088;SDS011;57635;49.194;12.104;2023-09-12T10:46:14;11.87;;;10.83;;
8088;SDS011;57635;49.194;12.104;2023-09-12T10:48:41;11.37;;;10.67;;
8088;SDS011;57635;49.194;12.104;2023-09-12T10:51:10;11.80;;;10.80;;
8088;SDS011;57635;49.194;12.104;2023-09-12T10:53:45;12.13;;;11.03;;
8088;SDS011;57635;49.194;12.104;2023-09-12T10:56:16;12.00;;;11.00;;
8088;SDS011;57635;49.194;12.104;2023-09-12T11:01:40;11.87;;;10.80;;
8088;SDS011;57635;49.194;12.104;2023-09-12T11:04:30;11.40;;;10.60;;
8088;SDS011;57635;49.194;12.104;2023-09-12T11:07:00;11.37;;;10.47;;
8088;SDS011;57635;49.194;12.104;2023-09-12T11:09:28;11.57;;;10.67;;
8088;SDS011;57635;49.194;12.104;2023-09-12T11:11:57;11.37;;;10.40;;
8088;SDS011;57635;49.194;12.104;2023-09-12T11:14:26;12.27;;;11.03;;
8088;SDS011;57635;49.194;12.104;2023-09-12T11:19:51;12.40;;;11.50;;
8088;SDS011;57635;49.194;12.104;2023-09-12T11:22:23;12.57;;;11.57;;
8088;SDS011;57635;49.194;12.104;2023-09-12T11:24:52;11.17;;;10.33;;
8088;SDS011;57635;49.194;12.104;2023-09-12T11:27:22;10.67;;;9.97;;
8088;SDS011;57635;49.194;12.104;2023-09-12T11:29:51;11.83;;;10.83;;
8088;SDS011;57635;49.194;12.104;2023-09-12T11:32:29;11.53;;;10.70;;
8088;SDS011;57635;49.194;12.104;2023-09-12T11:34:59;13.00;;;11.83;;
8088;SDS011;57635;49.194;12.104;2023-09-12T11:37:27;11.60;;;10.50;;
8088;SDS011;57635;49.194;12.104;2023-09-12T11:39:56;11.07;;;10.37;;
8088;SDS011;57635;49.194;12.104;2023-09-12T11:42:24;11.83;;;10.83;;
8088;SDS011;57635;49.194;12.104;2023-09-12T11:44:52;11.80;;;10.80;;
8088;SDS011;57635;49.194;12.104;2023-09-12T11:47:20;10.93;;;10.00;;
8088;SDS011;57635;49.194;12.104;2023-09-12T11:49:49;11.70;;;10.83;;
8088;SDS011;57635;49.194;12.104;2023-09-12T11:52:17;12.07;;;11.27;;
8088;SDS011;57635;49.194;12.104;2023-09-12T11:54:46;11.30;;;10.50;;
8088;SDS011;57635;49.194;12.104;2023-09-12T11:57:15;10.97;;;10.13;;
8088;SDS011;57635;49.194;12.104;2023-09-12T11:59:43;11.43;;;10.63;;
8088;SDS011;57635;49.194;12.104;2023-09-12T12:02:12;11.03;;;10.13;;
8088;SDS011;57635;49.194;12.104;2023-09-12T12:04:40;11.07;;;10.37;;
8088;SDS011;57635;49.194;12.104;2023-09-12T12:07:10;11.77;;;10.80;;
8088;SDS011;57635;49.194;12.104;2023-09-12T12:09:38;11.37;;;10.37;;
8088;SDS011;57635;49.194;12.104;2023-09-12T12:12:09;11.57;;;10.83;;
8088;SDS011;57635;49.194;12.104;2023-09-12T12:14:38;12.13;;;11.23;;
8088;SDS011;57635;49.194;12.104;2023-09-12T12:17:07;11.20;;;10.33;;
8088;SDS011;57635;49.194;12.104;2023-09-12T12:19:36;10.77;;;9.87;;
8088;SDS011;57635;49.194;12.104;2023-09-12T12:22:04;12.17;;;11.20;;
8088;SDS011;57635;49.194;12.104;2023-09-12T12:24:38;11.63;;;10.43;;
8088;SDS011;57635;49.194;12.104;2023-09-12T12:27:07;11.27;;;10.10;;
8088;SDS011;57635;49.194;12.104;2023-09-12T12:29:37;11.00;;;10.00;;
8088;SDS011;57635;49.194;12.104;2023-09-12T12:32:06;10.87;;;9.97;;
8088;SDS011;57635;49.194;12.104;2023-09-12T12:34:36;10.77;;;9.97;;
8088;SDS011;57635;49.194;12.104;2023-09-12T12:37:27;11.33;;;10.17;;
8088;SDS011;57635;49.194;12.104;2023-09-12T12:39:58;11.13;;;10.00;;
8088;SDS011;57635;49.194;12.104;2023-09-12T12:42:32;11.33;;;10.43;;
8088;SDS011;57635;49.194;12.104;2023-09-12T12:45:14;14.37;;;10.97;;
8088;SDS011;57635;49.194;12.104;2023-09-12T12:47:43;10.50;;;9.10;;
8088;SDS011;57635;49.194;12.104;2023-09-12T12:50:11;11.50;;;10.70;;
8088;SDS011;57635;49.194;12.104;2023-09-12T12:52:39;9.60;;;9.00;;
8088;SDS011;57635;49.194;12.104;2023-09-12T12:55:10;11.17;;;9.57;;
8088;SDS011;57635;49.194;12.104;2023-09-12T12:57:39;10.97;;;10.07;;
8088;SDS011;57635;49.194;12.104;2023-09-12T13:00:08;10.77;;;10.07;;
8088;SDS011;57635;49.194;12.104;2023-09-12T13:02:37;9.97;;;9.27;;
8088;SDS011;57635;49.194;12.104;2023-09-12T13:05:06;13.55;;;12.35;;
8088;SDS011;57635;49.194;12.104;2023-09-12T13:07:46;11.18;;;10.45;;
8088;SDS011;57635;49.194;12.104;2023-09-12T13:10:15;10.90;;;9.48;;
8088;SDS011;57635;49.194;12.104;2023-09-12T13:12:43;13.35;;;12.05;;
8088;SDS011;57635;49.194;12.104;2023-09-12T13:15:12;15.00;;;13.80;;
8088;SDS011;57635;49.194;12.104;2023-09-12T13:17:40;11.95;;;11.07;;
8088;SDS011;57635;49.194;12.104;2023-09-12T13:20:08;11.43;;;10.35;;
8088;SDS011;57635;49.194;12.104;2023-09-12T13:22:36;11.43;;;10.52;;
8088;SDS011;57635;49.194;12.104;2023-09-12T13:25:05;10.47;;;9.77;;
8088;SDS011;57635;49.194;12.104;2023-09-12T13:27:34;15.43;;;14.43;;
8088;SDS011;57635;49.194;12.104;2023-09-12T13:30:02;20.03;;;18.30;;
8088;SDS011;57635;49.194;12.104;2023-09-12T13:32:31;9.90;;;9.00;;
8088;SDS011;57635;49.194;12.104;2023-09-12T13:35:00;9.40;;;8.80;;
8088;SDS011;57635;49.194;12.104;2023-09-12T13:37:27;9.53;;;8.63;;
8088;SDS011;57635;49.194;12.104;2023-09-12T13:39:57;10.00;;;9.33;;
8088;SDS011;57635;49.194;12.104;2023-09-12T13:42:25;8.17;;;7.57;;
8088;SDS011;57635;49.194;12.104;2023-09-12T13:44:58;9.67;;;8.87;;
8088;SDS011;57635;49.194;12.104;2023-09-12T13:47:26;10.23;;;9.00;;
8088;SDS011;57635;49.194;12.104;2023-09-12T13:49:53;12.30;;;9.63;;
8088;SDS011;57635;49.194;12.104;2023-09-12T13:52:21;9.60;;;8.90;;
8088;SDS011;57635;49.194;12.104;2023-09-12T13:54:49;8.73;;;8.10;;
8088;SDS011;57635;49.194;12.104;2023-09-12T13:57:16;9.33;;;8.60;;
8088;SDS011;57635;49.194;12.104;2023-09-12T13:59:44;8.87;;;8.27;;
8088;SDS011;57635;49.194;12.104;2023-09-12T14:02:13;7.87;;;7.33;;
8088;SDS011;57635;49.194;12.104;2023-09-12T14:04:41;8.80;;;7.87;;
8088;SDS011;57635;49.194;12.104;2023-09-12T14:07:10;9.05;;;8.23;;
8088;SDS011;57635;49.194;12.104;2023-09-12T14:09:38;9.82;;;9.23;;
8088;SDS011;57635;49.194;12.104;2023-09-12T14:12:06;8.75;;;8.05;;
8088;SDS011;57635;49.194;12.104;2023-09-12T14:14:51;9.00;;;8.30;;
8088;SDS011;57635;49.194;12.104;2023-09-12T14:17:33;9.23;;;8.48;;
8088;SDS011;57635;49.194;12.104;2023-09-12T14:20:03;9.25;;;8.65;;
8088;SDS011;57635;49.194;12.104;2023-09-12T14:22:32;8.85;;;8.25;;
8088;SDS011;57635;49.194;12.104;2023-09-12T14:25:00;9.13;;;8.52;;
8088;SDS011;57635;49.194;12.104;2023-09-12T14:27:29;9.38;;;8.80;;
8088;SDS011;57635;49.194;12.104;2023-09-12T14:29:56;9.02;;;8.27;;
8088;SDS011;57635;49.194;12.104;2023-09-12T14:32:25;8.52;;;7.93;;
8088;SDS011;57635;49.194;12.104;2023-09-12T14:34:54;8.68;;;7.97;;
8088;SDS011;57635;49.194;12.104;2023-09-12T14:37:23;7.72;;;7.25;;
8088;SDS011;57635;49.194;12.104;2023-09-12T14:39:53;8.30;;;7.60;;
8088;SDS011;57635;49.194;12.104;2023-09-12T14:42:21;8.95;;;8.20;;